Time;durP1;ratioP1;P1;durP2;ratioP2;P2;SDS_P1;SDS_P2;PMS_P1;PMS_P2;Temp;Humidity;BMP_temperature;BMP_pressure;BME280_temperature;BME280_humidity;BME280_pressure;Samples;Min_cycle;Max_cycle;Signal;HPM_P1;HPM_P2
2022/10/02 00:02:16;;;;;;;27.25;7.82;;;;;;;;;;4991910;28;20025;-73
2022/10/02 00:04:51;;;;;;;26.60;8.27;;;;;;;;;;5005969;28;20914;-73
2022/10/02 00:07:18;;;;;;;31.98;8.55;;;;;;;;;;4993766;28;20832;-71
2022/10/02 00:09:48;;;;;;;25.63;8.40;;;;;;;;;;4989429;28;20017;-72
2022/10/02 00:12:16;;;;;;;27.40;7.90;;;;;;;;;;4990575;28;20120;-73
2022/10/02 00:14:43;;;;;;;23.30;7.88;;;;;;;;;;4992070;28;20045;-73
2022/10/02 00:17:13;;;;;;;23.85;9.00;;;;;;;;;;4987902;28;20035;-73
2022/10/02 00:19:38;;;;;;;30.38;8.60;;;;;;;;;;4994764;28;20029;-70
2022/10/02 00:22:04;;;;;;;21.37;7.67;;;;;;;;;;4994615;28;20080;-74
2022/10/02 00:24:35;;;;;;;29.43;8.97;;;;;;;;;;4991737;28;20266;-73
2022/10/02 00:27:14;;;;;;;25.00;8.05;;;;;;;;;;4989827;28;20022;-73
2022/10/02 00:29:50;;;;;;;23.25;8.95;;;;;;;;;;4990138;28;20018;-74
2022/10/02 00:32:18;;;;;;;26.15;9.50;;;;;;;;;;4992920;28;20133;-73
2022/10/02 00:34:44;;;;;;;33.50;7.53;;;;;;;;;;4990004;28;20960;-74
2022/10/02 00:37:15;;;;;;;18.53;7.77;;;;;;;;;;4989129;28;20029;-72
2022/10/02 00:39:49;;;;;;;23.83;7.68;;;;;;;;;;4988820;28;20306;-72
2022/10/02 00:42:33;;;;;;;41.80;9.55;;;;;;;;;;4989699;28;20867;-74
2022/10/02 00:45:17;;;;;;;27.10;8.77;;;;;;;;;;4989731;28;20030;-74
2022/10/02 00:47:42;;;;;;;25.73;8.60;;;;;;;;;;4989906;28;20040;-75
2022/10/02 00:50:14;;;;;;;25.37;8.13;;;;;;;;;;4986782;28;20053;-67
2022/10/02 00:52:56;;;;;;;28.27;8.88;;;;;;;;;;4995698;28;20014;-72
2022/10/02 00:55:21;;;;;;;25.33;8.80;;;;;;;;;;4988396;28;20027;-73
2022/10/02 00:58:05;;;;;;;31.40;8.93;;;;;;;;;;5002059;28;20132;-74
2022/10/02 01:00:30;;;;;;;20.15;8.15;;;;;;;;;;4988865;28;20025;-74
2022/10/02 01:03:01;;;;;;;29.20;9.20;;;;;;;;;;4988893;28;20076;-74
2022/10/02 01:05:27;;;;;;;26.52;9.68;;;;;;;;;;4975258;28;20661;-74
2022/10/02 01:07:53;;;;;;;30.90;9.80;;;;;;;;;;4990806;28;20952;-74
2022/10/02 01:10:21;;;;;;;26.77;9.18;;;;;;;;;;4989918;28;20067;-74
2022/10/02 01:12:46;;;;;;;23.20;7.85;;;;;;;;;;4988556;28;20018;-70
2022/10/02 01:15:13;;;;;;;24.38;8.77;;;;;;;;;;4990474;28;20083;-73
2022/10/02 01:17:38;;;;;;;25.02;9.32;;;;;;;;;;4989346;28;20039;-73
2022/10/02 01:20:05;;;;;;;27.67;8.27;;;;;;;;;;4991850;28;20021;-73
2022/10/02 01:22:34;;;;;;;40.78;10.30;;;;;;;;;;4989634;28;20022;-74
2022/10/02 01:25:03;;;;;;;31.92;8.38;;;;;;;;;;4977918;28;20792;-73
2022/10/02 01:27:28;;;;;;;32.47;9.40;;;;;;;;;;4989377;28;20014;-71
2022/10/02 01:29:55;;;;;;;26.88;9.75;;;;;;;;;;4990157;28;20028;-73
2022/10/02 01:32:24;;;;;;;33.42;8.40;;;;;;;;;;4989910;28;20076;-73
2022/10/02 01:34:50;;;;;;;27.98;9.23;;;;;;;;;;4988299;28;20021;-73
2022/10/02 01:37:16;;;;;;;34.97;9.32;;;;;;;;;;4997370;28;20041;-74
2022/10/02 01:39:41;;;;;;;25.75;9.35;;;;;;;;;;5013873;28;20045;-73
2022/10/02 01:42:06;;;;;;;28.65;10.05;;;;;;;;;;4987642;28;20026;-74
2022/10/02 01:44:32;;;;;;;26.52;9.35;;;;;;;;;;4988605;28;20125;-74
2022/10/02 01:47:00;;;;;;;34.97;9.45;;;;;;;;;;4988074;28;20875;-75
2022/10/02 01:49:44;;;;;;;24.23;8.93;;;;;;;;;;4987638;28;20028;-74
2022/10/02 01:52:12;;;;;;;32.75;9.68;;;;;;;;;;4975420;28;20033;-73
2022/10/02 01:54:38;;;;;;;22.85;9.13;;;;;;;;;;4987985;28;20891;-73
2022/10/02 01:57:22;;;;;;;32.90;10.13;;;;;;;;;;4985704;28;20026;-73
2022/10/02 01:59:47;;;;;;;28.20;8.00;;;;;;;;;;4987805;28;20021;-74
2022/10/02 02:02:12;;;;;;;30.57;8.20;;;;;;;;;;4987686;28;20053;-73
2022/10/02 02:04:44;;;;;;;41.70;8.73;;;;;;;;;;4998043;28;21022;-73
2022/10/02 02:07:13;;;;;;;18.02;5.97;;;;;;;;;;4977573;28;20461;-74
2022/10/02 02:09:55;;;;;;;20.23;8.93;;;;;;;;;;4986788;28;20480;-74
2022/10/02 02:12:24;;;;;;;22.42;8.52;;;;;;;;;;4988637;28;20367;-73
2022/10/02 02:14:52;;;;;;;24.73;8.40;;;;;;;;;;4988780;28;20013;-74
2022/10/02 02:17:23;;;;;;;34.53;9.30;;;;;;;;;;4989842;28;20199;-74
2022/10/02 02:20:00;;;;;;;27.80;9.13;;;;;;;;;;4992469;28;20017;-71
2022/10/02 02:22:28;;;;;;;22.38;7.43;;;;;;;;;;4988656;28;20811;-68
2022/10/02 02:24:56;;;;;;;29.10;9.10;;;;;;;;;;4995922;28;20017;-71
2022/10/02 02:27:25;;;;;;;26.50;8.45;;;;;;;;;;4989627;28;20857;-71
2022/10/02 02:29:53;;;;;;;23.23;8.43;;;;;;;;;;4985556;28;20021;-72
2022/10/02 02:32:21;;;;;;;25.20;8.15;;;;;;;;;;4981976;28;20326;-71
2022/10/02 02:34:50;;;;;;;21.35;6.38;;;;;;;;;;4993901;28;20017;-70
2022/10/02 02:37:18;;;;;;;20.50;7.88;;;;;;;;;;4987593;28;20026;-71
2022/10/02 02:39:51;;;;;;;22.58;7.10;;;;;;;;;;4986007;28;20029;-71
2022/10/02 02:42:18;;;;;;;16.42;7.50;;;;;;;;;;4989338;28;20127;-70
2022/10/02 02:44:46;;;;;;;24.88;8.88;;;;;;;;;;4988356;28;20128;-70
2022/10/02 02:47:17;;;;;;;23.55;9.07;;;;;;;;;;4987757;28;20020;-70
2022/10/02 02:49:43;;;;;;;32.80;8.45;;;;;;;;;;4987490;28;20028;-71
2022/10/02 02:52:10;;;;;;;50.60;10.27;;;;;;;;;;4989529;28;20825;-72
2022/10/02 02:54:46;;;;;;;20.20;7.80;;;;;;;;;;4995031;28;20024;-70
2022/10/02 02:57:13;;;;;;;22.95;7.97;;;;;;;;;;4986531;28;20065;-70
2022/10/02 02:59:39;;;;;;;28.65;9.48;;;;;;;;;;4986500;28;20040;-71
2022/10/02 03:02:04;;;;;;;25.17;9.02;;;;;;;;;;4977648;28;20118;-71
2022/10/02 03:04:30;;;;;;;23.07;8.57;;;;;;;;;;4989316;28;20883;-71
2022/10/02 03:06:57;;;;;;;36.38;10.35;;;;;;;;;;4998759;28;21233;-71
2022/10/02 03:09:24;;;;;;;30.05;9.80;;;;;;;;;;4988654;28;20014;-70
2022/10/02 03:12:08;;;;;;;29.33;10.27;;;;;;;;;;4987070;28;20017;-71
2022/10/02 03:14:52;;;;;;;22.52;8.15;;;;;;;;;;4996356;28;20134;-70
2022/10/02 03:17:36;;;;;;;28.53;9.80;;;;;;;;;;4987806;28;20033;-67
2022/10/02 03:20:10;;;;;;;35.23;10.37;;;;;;;;;;4976304;28;20025;-71
2022/10/02 03:22:49;;;;;;;32.05;10.27;;;;;;;;;;4990710;28;20021;-71
2022/10/02 03:25:20;;;;;;;31.17;10.32;;;;;;;;;;4988589;28;20021;-70
2022/10/02 03:27:49;;;;;;;28.52;10.45;;;;;;;;;;4992426;28;20092;-71
2022/10/02 03:30:19;;;;;;;31.52;9.63;;;;;;;;;;4992246;28;20056;-72
2022/10/02 03:32:45;;;;;;;29.23;9.02;;;;;;;;;;4987561;28;20021;-71
2022/10/02 03:35:11;;;;;;;26.25;8.70;;;;;;;;;;4987568;28;20130;-72
2022/10/02 03:37:38;;;;;;;38.00;10.25;;;;;;;;;;4986525;28;21020;-71
2022/10/02 03:40:05;;;;;;;33.33;9.63;;;;;;;;;;4987600;28;20053;-70
2022/10/02 03:42:31;;;;;;;26.15;8.20;;;;;;;;;;4989460;28;20025;-72
2022/10/02 03:44:56;;;;;;;25.65;8.15;;;;;;;;;;5019726;28;20028;-71
2022/10/02 03:47:21;;;;;;;21.73;8.18;;;;;;;;;;4988647;28;20021;-72
2022/10/02 03:49:47;;;;;;;31.85;9.20;;;;;;;;;;4992017;28;20021;-72
2022/10/02 03:52:16;;;;;;;19.23;9.00;;;;;;;;;;4989349;28;20130;-71
2022/10/02 03:54:41;;;;;;;20.65;8.23;;;;;;;;;;4988380;28;21243;-71
2022/10/02 03:57:10;;;;;;;32.17;8.75;;;;;;;;;;4988510;28;20097;-71
2022/10/02 03:59:47;;;;;;;29.42;6.88;;;;;;;;;;4986044;28;20022;-70
2022/10/02 04:02:20;;;;;;;25.88;8.77;;;;;;;;;;4993484;28;20013;-72
2022/10/02 04:04:48;;;;;;;20.58;7.50;;;;;;;;;;4984484;28;20022;-71
2022/10/02 04:07:19;;;;;;;32.20;8.35;;;;;;;;;;4982611;28;20072;-70
2022/10/02 04:09:50;;;;;;;33.28;9.07;;;;;;;;;;4996212;28;20035;-70
2022/10/02 04:12:19;;;;;;;28.75;8.45;;;;;;;;;;4987417;28;20014;-69
2022/10/02 04:14:49;;;;;;;19.35;7.53;;;;;;;;;;4990532;28;20148;-71
2022/10/02 04:17:18;;;;;;;19.58;7.20;;;;;;;;;;4990815;28;20014;-71
2022/10/02 04:19:45;;;;;;;23.23;7.82;;;;;;;;;;4996976;28;20017;-72
2022/10/02 04:22:13;;;;;;;21.75;8.38;;;;;;;;;;4989314;28;20017;-71
2022/10/02 04:24:50;;;;;;;20.90;8.05;;;;;;;;;;4990721;28;20030;-71
2022/10/02 04:27:28;;;;;;;34.30;8.18;;;;;;;;;;4991408;28;20017;-70
2022/10/02 04:30:01;;;;;;;19.52;6.70;;;;;;;;;;4988887;28;20075;-72
2022/10/02 04:32:31;;;;;;;20.70;7.80;;;;;;;;;;4990304;28;20168;-71
2022/10/02 04:34:56;;;;;;;24.45;6.70;;;;;;;;;;4989572;28;20014;-70
2022/10/02 04:37:40;;;;;;;14.55;6.25;;;;;;;;;;4992302;28;20099;-69
2022/10/02 04:40:24;;;;;;;17.48;7.05;;;;;;;;;;4995168;28;20019;-69
2022/10/02 04:43:05;;;;;;;19.23;7.30;;;;;;;;;;4992158;28;20147;-68
2022/10/02 04:45:40;;;;;;;22.35;7.25;;;;;;;;;;4992183;28;20045;-66
2022/10/02 04:48:18;;;;;;;25.13;7.13;;;;;;;;;;5021673;28;20065;-70
2022/10/02 04:50:50;;;;;;;19.90;6.95;;;;;;;;;;4997110;28;20017;-69
2022/10/02 04:53:24;;;;;;;21.88;7.13;;;;;;;;;;4998964;28;20129;-70
2022/10/02 04:55:53;;;;;;;29.45;8.27;;;;;;;;;;4992834;28;20071;-71
2022/10/02 04:58:27;;;;;;;26.33;7.25;;;;;;;;;;4992314;28;20025;-72
2022/10/02 05:01:04;;;;;;;15.35;6.35;;;;;;;;;;4993118;28;20021;-71
2022/10/02 05:03:47;;;;;;;16.85;7.45;;;;;;;;;;4991032;28;20056;-70
2022/10/02 05:06:28;;;;;;;24.20;7.72;;;;;;;;;;4991140;28;20013;-71
2022/10/02 05:09:08;;;;;;;22.95;7.18;;;;;;;;;;4991822;28;20025;-69
2022/10/02 05:11:58;;;;;;;15.63;7.65;;;;;;;;;;4993866;28;20025;-68
2022/10/02 05:14:31;;;;;;;23.58;6.93;;;;;;;;;;4994917;28;20025;-68
2022/10/02 05:16:59;;;;;;;19.73;6.82;;;;;;;;;;4992444;28;20061;-69
2022/10/02 05:19:24;;;;;;;17.35;6.63;;;;;;;;;;4994102;28;20121;-68
2022/10/02 05:21:56;;;;;;;18.93;6.47;;;;;;;;;;4990379;28;20017;-69
2022/10/02 05:24:33;;;;;;;18.80;7.22;;;;;;;;;;4990175;28;20268;-69
2022/10/02 05:27:01;;;;;;;13.43;5.90;;;;;;;;;;4997309;28;20095;-69
2022/10/02 05:29:36;;;;;;;15.48;6.05;;;;;;;;;;4990630;28;20112;-69
2022/10/02 05:32:14;;;;;;;20.92;6.78;;;;;;;;;;4991396;28;20048;-67
2022/10/02 05:35:06;;;;;;;16.63;6.68;;;;;;;;;;5002702;28;20021;-69
2022/10/02 05:37:31;;;;;;;19.02;6.90;;;;;;;;;;4991696;28;20087;-69
2022/10/02 05:40:02;;;;;;;19.53;6.33;;;;;;;;;;4990131;28;20144;-69
2022/10/02 05:42:50;;;;;;;12.30;5.50;;;;;;;;;;4989739;28;20909;-70
2022/10/02 05:45:21;;;;;;;16.05;5.45;;;;;;;;;;4981785;28;20025;-69
2022/10/02 05:47:48;;;;;;;14.23;5.75;;;;;;;;;;4980468;28;20946;-69
2022/10/02 05:50:17;;;;;;;16.48;5.15;;;;;;;;;;4987845;28;20017;-71
2022/10/02 05:52:54;;;;;;;17.00;5.28;;;;;;;;;;4991138;28;20057;-70
2022/10/02 05:55:19;;;;;;;12.10;5.25;;;;;;;;;;4981345;28;20021;-70
2022/10/02 05:57:50;;;;;;;15.03;5.77;;;;;;;;;;4991685;28;20029;-70
2022/10/02 06:00:34;;;;;;;14.05;5.68;;;;;;;;;;4986325;28;20026;-71
2022/10/02 06:03:10;;;;;;;15.45;5.22;;;;;;;;;;4987922;28;20118;-72
2022/10/02 06:05:45;;;;;;;12.57;5.82;;;;;;;;;;4987212;28;20025;-70
2022/10/02 06:08:13;;;;;;;13.98;4.82;;;;;;;;;;4990447;28;20857;-70
2022/10/02 06:10:47;;;;;;;15.20;4.88;;;;;;;;;;4998793;28;20098;-70
2022/10/02 06:13:23;;;;;;;16.42;5.55;;;;;;;;;;4988797;28;20013;-70
2022/10/02 06:16:07;;;;;;;14.30;4.97;;;;;;;;;;4991539;28;20028;-70
2022/10/02 06:18:34;;;;;;;16.43;6.23;;;;;;;;;;4990230;28;20198;-70
2022/10/02 06:21:24;;;;;;;11.20;4.28;;;;;;;;;;4992631;28;20028;-71
2022/10/02 06:23:52;;;;;;;13.05;4.97;;;;;;;;;;4986007;28;20119;-70
2022/10/02 06:26:23;;;;;;;27.55;5.72;;;;;;;;;;4988033;28;20036;-71
2022/10/02 06:29:01;;;;;;;16.60;5.20;;;;;;;;;;4990695;28;20041;-71
2022/10/02 06:31:52;;;;;;;12.73;4.60;;;;;;;;;;4995497;28;20424;-71
2022/10/02 06:34:18;;;;;;;13.52;5.22;;;;;;;;;;5031772;28;20435;-71
2022/10/02 06:36:43;;;;;;;16.60;4.97;;;;;;;;;;5012093;28;20041;-70
2022/10/02 06:39:31;;;;;;;10.90;4.67;;;;;;;;;;5036758;28;20109;-69
2022/10/02 06:42:08;;;;;;;13.20;5.07;;;;;;;;;;5038373;28;20022;-69
2022/10/02 06:44:46;;;;;;;15.90;4.97;;;;;;;;;;5032853;28;20095;-70
2022/10/02 06:47:21;;;;;;;18.73;5.10;;;;;;;;;;5043614;28;20048;-72
2022/10/02 06:49:56;;;;;;;14.63;5.43;;;;;;;;;;5064882;28;20025;-67
2022/10/02 06:52:44;;;;;;;12.68;4.90;;;;;;;;;;5028500;28;20380;-66
2022/10/02 06:55:27;;;;;;;12.55;4.80;;;;;;;;;;5032156;28;20033;-66
2022/10/02 06:58:02;;;;;;;14.02;5.22;;;;;;;;;;5030917;28;20063;-66
2022/10/02 07:00:30;;;;;;;11.35;4.63;;;;;;;;;;5032096;28;20032;-67
2022/10/02 07:03:15;;;;;;;25.35;4.90;;;;;;;;;;5034306;28;20018;-70
2022/10/02 07:06:05;;;;;;;15.25;4.50;;;;;;;;;;5030484;28;20431;-68
2022/10/02 07:08:30;;;;;;;16.10;5.07;;;;;;;;;;5031829;28;20021;-69
2022/10/02 07:11:07;;;;;;;15.70;5.10;;;;;;;;;;5029458;28;20072;-69
2022/10/02 07:13:34;;;;;;;17.77;4.43;;;;;;;;;;5031266;28;20746;-69
2022/10/02 07:16:11;;;;;;;12.65;4.40;;;;;;;;;;5033561;28;20032;-66
2022/10/02 07:18:55;;;;;;;16.63;5.05;;;;;;;;;;5031483;28;20396;-67
2022/10/02 07:21:37;;;;;;;16.42;3.33;;;;;;;;;;5030892;28;20017;-68
2022/10/02 07:24:18;;;;;;;11.25;3.30;;;;;;;;;;5028825;28;20030;-67
2022/10/02 07:27:09;;;;;;;13.10;4.53;;;;;;;;;;5030165;28;20026;-67
2022/10/02 07:29:43;;;;;;;10.43;4.15;;;;;;;;;;5024149;28;20117;-70
2022/10/02 07:32:14;;;;;;;15.60;4.07;;;;;;;;;;5020052;28;20161;-71
2022/10/02 07:34:50;;;;;;;10.80;3.88;;;;;;;;;;5029543;28;20480;-69
2022/10/02 07:37:34;;;;;;;14.68;4.53;;;;;;;;;;5034830;28;20063;-69
2022/10/02 07:40:12;;;;;;;8.32;4.00;;;;;;;;;;5034975;28;20091;-70
2022/10/02 07:42:37;;;;;;;9.35;3.17;;;;;;;;;;5035378;28;20040;-70
2022/10/02 07:45:02;;;;;;;17.38;4.40;;;;;;;;;;5029180;28;20464;-69
2022/10/02 07:47:27;;;;;;;17.23;4.47;;;;;;;;;;5044259;28;20017;-70
2022/10/02 07:50:02;;;;;;;16.10;4.33;;;;;;;;;;5052110;28;20017;-70
2022/10/02 07:52:56;;;;;;;11.18;3.22;;;;;;;;;;5024721;28;20106;-70
2022/10/02 07:55:22;;;;;;;8.95;3.75;;;;;;;;;;5036928;28;20111;-70
2022/10/02 07:57:51;;;;;;;11.32;3.78;;;;;;;;;;5052513;28;20108;-71
2022/10/02 08:00:17;;;;;;;14.25;4.03;;;;;;;;;;5035205;28;20026;-70
2022/10/02 08:02:51;;;;;;;17.90;4.55;;;;;;;;;;5043397;28;20450;-70
2022/10/02 08:05:37;;;;;;;13.48;3.70;;;;;;;;;;5037623;28;20024;-71
2022/10/02 08:08:05;;;;;;;9.95;3.40;;;;;;;;;;5030847;28;20136;-69
2022/10/02 08:10:34;;;;;;;8.30;3.53;;;;;;;;;;5034050;28;20020;-70
2022/10/02 08:13:20;;;;;;;8.15;2.60;;;;;;;;;;5034469;28;20067;-69
2022/10/02 08:15:47;;;;;;;10.25;3.95;;;;;;;;;;5020897;28;20099;-70
2022/10/02 08:18:16;;;;;;;10.25;3.75;;;;;;;;;;5016407;28;20936;-70
2022/10/02 08:20:42;;;;;;;10.50;3.75;;;;;;;;;;5027569;28;20029;-70
2022/10/02 08:23:10;;;;;;;12.82;3.20;;;;;;;;;;5034218;28;20027;-69
2022/10/02 08:25:45;;;;;;;10.40;4.70;;;;;;;;;;5033960;28;20067;-69
2022/10/02 08:28:15;;;;;;;18.15;4.10;;;;;;;;;;5018379;28;20030;-69
2022/10/02 08:30:40;;;;;;;6.43;3.13;;;;;;;;;;5034085;28;20558;-69
2022/10/02 08:33:24;;;;;;;10.07;3.75;;;;;;;;;;5032680;28;20475;-69
2022/10/02 08:36:08;;;;;;;10.20;3.80;;;;;;;;;;5032777;28;20069;-69
2022/10/02 08:38:36;;;;;;;9.90;4.00;;;;;;;;;;5022849;28;20025;-70
2022/10/02 08:41:14;;;;;;;15.20;4.20;;;;;;;;;;5033127;28;20706;-69
2022/10/02 08:44:10;;;;;;;12.27;3.97;;;;;;;;;;5031704;28;20451;-70
2022/10/02 08:46:48;;;;;;;11.15;3.80;;;;;;;;;;5033129;28;20041;-69
2022/10/02 08:49:22;;;;;;;7.88;3.50;;;;;;;;;;5031211;28;20112;-71
2022/10/02 08:51:47;;;;;;;;;;;;;;;;;;5013372;28;20491;-71
2022/10/02 08:54:42;;;;;;;10.52;3.95;;;;;;;;;;5032943;28;20417;-71
2022/10/02 08:57:16;;;;;;;9.13;3.97;;;;;;;;;;5028748;28;20078;-71
2022/10/02 08:59:44;;;;;;;7.65;3.17;;;;;;;;;;5033379;28;20076;-71
2022/10/02 09:02:12;;;;;;;6.70;3.22;;;;;;;;;;5033784;28;20025;-72
2022/10/02 09:04:43;;;;;;;13.48;3.92;;;;;;;;;;5033249;28;20026;-71
2022/10/02 09:07:18;;;;;;;7.22;3.28;;;;;;;;;;5033287;28;20454;-70
2022/10/02 09:09:46;;;;;;;9.75;3.22;;;;;;;;;;5032891;28;20480;-71
2022/10/02 09:12:23;;;;;;;8.05;2.78;;;;;;;;;;5032965;28;20079;-71
2022/10/02 09:14:57;;;;;;;13.38;3.33;;;;;;;;;;5033341;28;20098;-70
2022/10/02 09:17:23;;;;;;;9.27;3.38;;;;;;;;;;5044854;28;20028;-67
2022/10/02 09:20:09;;;;;;;10.80;3.50;;;;;;;;;;5035430;28;20032;-68
2022/10/02 09:23:01;;;;;;;11.55;3.65;;;;;;;;;;5032171;28;20457;-68
2022/10/02 09:25:45;;;;;;;7.05;2.75;;;;;;;;;;5024816;28;20041;-66
2022/10/02 09:28:22;;;;;;;9.20;3.33;;;;;;;;;;5033377;28;20097;-68
2022/10/02 09:31:06;;;;;;;6.82;2.97;;;;;;;;;;5023766;28;20350;-67
2022/10/02 09:33:31;;;;;;;13.10;3.65;;;;;;;;;;5003670;28;20021;-68
2022/10/02 09:36:23;;;;;;;9.73;3.22;;;;;;;;;;5015107;28;20029;-73
2022/10/02 09:38:57;;;;;;;8.65;3.40;;;;;;;;;;5034353;28;20041;-72
2022/10/02 09:41:37;;;;;;;6.32;3.03;;;;;;;;;;5030677;28;20036;-71
2022/10/02 09:44:18;;;;;;;10.05;3.72;;;;;;;;;;5035101;28;20017;-70
2022/10/02 09:47:02;;;;;;;7.65;3.15;;;;;;;;;;5026486;28;20071;-69
2022/10/02 09:49:43;;;;;;;7.20;3.63;;;;;;;;;;5031804;28;20029;-70
2022/10/02 09:52:14;;;;;;;7.03;3.05;;;;;;;;;;5031747;28;20033;-71
2022/10/02 09:54:51;;;;;;;10.57;3.70;;;;;;;;;;5018947;28;20018;-71
2022/10/02 09:57:34;;;;;;;9.00;3.35;;;;;;;;;;5035152;28;20424;-69
2022/10/02 10:00:14;;;;;;;9.35;3.17;;;;;;;;;;5030121;28;20032;-71
2022/10/02 10:02:52;;;;;;;8.90;3.40;;;;;;;;;;5030913;28;20017;-68
2022/10/02 10:05:17;;;;;;;8.52;3.22;;;;;;;;;;5031748;28;20024;-71
2022/10/02 10:07:54;;;;;;;12.50;4.13;;;;;;;;;;5028774;28;20009;-71
2022/10/02 10:10:28;;;;;;;12.45;3.85;;;;;;;;;;5032387;28;20299;-72
2022/10/02 10:13:03;;;;;;;10.23;3.25;;;;;;;;;;5031565;28;20041;-68
2022/10/02 10:15:39;;;;;;;28.35;4.10;;;;;;;;;;5032711;28;20530;-68
2022/10/02 10:18:04;;;;;;;6.70;3.05;;;;;;;;;;5034692;28;20079;-69
2022/10/02 10:20:35;;;;;;;10.45;3.22;;;;;;;;;;5032552;28;20033;-69
2022/10/02 10:23:30;;;;;;;8.38;3.38;;;;;;;;;;5032508;28;20155;-69
2022/10/02 10:26:01;;;;;;;11.73;3.00;;;;;;;;;;5029483;28;20424;-70
2022/10/02 10:28:54;;;;;;;5.03;2.63;;;;;;;;;;5032713;28;20097;-70
2022/10/02 10:31:47;;;;;;;13.63;3.33;;;;;;;;;;5026716;28;20029;-70
2022/10/02 10:34:27;;;;;;;9.13;3.20;;;;;;;;;;5031124;28;20045;-69
2022/10/02 10:40:14;;;;;;;9.50;3.53;;;;;;;;;;5032203;28;20044;-69
2022/10/02 10:42:48;;;;;;;12.55;3.72;;;;;;;;;;5026942;28;20017;-69
2022/10/02 10:45:17;;;;;;;7.80;3.33;;;;;;;;;;5032528;28;20022;-71
2022/10/02 10:47:45;;;;;;;7.88;2.72;;;;;;;;;;5037777;28;20025;-73
2022/10/02 10:50:33;;;;;;;9.98;3.42;;;;;;;;;;5034187;28;20064;-72
2022/10/02 10:53:06;;;;;;;6.93;3.30;;;;;;;;;;5032131;28;20072;-70
2022/10/02 10:55:35;;;;;;;5.47;2.58;;;;;;;;;;5031931;28;20017;-71
2022/10/02 10:58:00;;;;;;;12.70;3.65;;;;;;;;;;5030710;28;20428;-67
2022/10/02 11:00:30;;;;;;;8.07;3.10;;;;;;;;;;5030371;28;20107;-67
2022/10/02 11:03:06;;;;;;;8.90;3.20;;;;;;;;;;5032719;28;20026;-72
2022/10/02 11:05:50;;;;;;;9.38;3.67;;;;;;;;;;5031469;28;20025;-67
2022/10/02 11:08:21;;;;;;;7.95;3.03;;;;;;;;;;5031860;28;20021;-66
2022/10/02 11:11:01;;;;;;;9.23;3.08;;;;;;;;;;5017249;28;20116;-67
2022/10/02 11:13:42;;;;;;;9.25;3.30;;;;;;;;;;5035890;28;20063;-66
2022/10/02 11:16:23;;;;;;;6.57;3.28;;;;;;;;;;5037131;28;20049;-70
2022/10/02 11:18:54;;;;;;;6.35;2.85;;;;;;;;;;5039289;28;20037;-71
2022/10/02 11:21:33;;;;;;;13.55;3.58;;;;;;;;;;5032273;28;20053;-73
2022/10/02 11:24:01;;;;;;;7.53;3.42;;;;;;;;;;5030009;28;20072;-72
2022/10/02 11:26:36;;;;;;;6.18;3.05;;;;;;;;;;5033192;28;20040;-73
2022/10/02 11:29:01;;;;;;;18.38;3.40;;;;;;;;;;5035309;28;20410;-72
2022/10/02 11:31:49;;;;;;;5.60;2.77;;;;;;;;;;5028571;28;20017;-73
2022/10/02 11:34:16;;;;;;;7.28;3.10;;;;;;;;;;5035639;28;20286;-69
2022/10/02 11:36:41;;;;;;;11.02;2.70;;;;;;;;;;5028245;28;20063;-72
2022/10/02 11:39:25;;;;;;;10.27;2.60;;;;;;;;;;5032965;28;20419;-72
2022/10/02 11:42:10;;;;;;;11.00;3.17;;;;;;;;;;5035494;28;20021;-73
2022/10/02 11:44:50;;;;;;;7.68;2.80;;;;;;;;;;5035265;28;20021;-72
2022/10/02 11:47:16;;;;;;;9.85;2.92;;;;;;;;;;5025171;28;20022;-72
2022/10/02 11:50:00;;;;;;;8.70;2.90;;;;;;;;;;5034664;28;20494;-72
2022/10/02 11:52:44;;;;;;;7.22;2.67;;;;;;;;;;5025164;28;20014;-71
2022/10/02 11:55:12;;;;;;;5.40;2.67;;;;;;;;;;5034357;28;20053;-72
2022/10/02 11:57:37;;;;;;;6.88;2.75;;;;;;;;;;5034448;28;20049;-72
2022/10/02 12:00:05;;;;;;;11.75;2.95;;;;;;;;;;5033807;28;20057;-73
2022/10/02 12:02:34;;;;;;;8.82;2.42;;;;;;;;;;5033269;28;20017;-72
2022/10/02 12:05:04;;;;;;;7.80;2.80;;;;;;;;;;5033745;28;20388;-73
2022/10/02 12:07:35;;;;;;;19.88;3.28;;;;;;;;;;5034909;28;20025;-73
2022/10/02 12:10:00;;;;;;;5.40;2.70;;;;;;;;;;5034731;28;20112;-72
2022/10/02 12:12:47;;;;;;;8.07;3.00;;;;;;;;;;5025642;28;20908;-72
2022/10/02 12:15:25;;;;;;;7.65;3.33;;;;;;;;;;5035495;28;20480;-73
2022/10/02 12:17:59;;;;;;;7.10;2.92;;;;;;;;;;5036319;28;20144;-72
2022/10/02 12:28:54;;;;;;;6.32;3.25;;;;;;;;;;5034348;28;20071;-72
2022/10/02 12:31:20;;;;;;;6.32;2.72;;;;;;;;;;5032139;28;20028;-72
2022/10/02 12:34:18;;;;;;;8.23;3.03;;;;;;;;;;5028861;28;20017;-72
2022/10/02 12:36:50;;;;;;;7.88;2.67;;;;;;;;;;5026175;28;20396;-73
2022/10/02 12:39:34;;;;;;;7.47;3.42;;;;;;;;;;5034290;28;20033;-72
2022/10/02 12:42:13;;;;;;;8.93;3.13;;;;;;;;;;5034385;28;20025;-69
2022/10/02 12:44:46;;;;;;;7.50;2.70;;;;;;;;;;5034124;28;20461;-72
2022/10/02 12:47:17;;;;;;;9.48;4.00;;;;;;;;;;5018899;28;20017;-72
2022/10/02 12:49:49;;;;;;;12.93;3.22;;;;;;;;;;5028836;28;20096;-72
2022/10/02 12:52:14;;;;;;;9.50;2.83;;;;;;;;;;5030052;28;20021;-73
2022/10/02 12:54:58;;;;;;;9.73;3.67;;;;;;;;;;5026836;28;20060;-72
2022/10/02 13:00:17;;;;;;;8.40;3.30;;;;;;;;;;5038770;28;20036;-73
2022/10/02 13:02:42;;;;;;;10.80;3.53;;;;;;;;;;5033948;28;20448;-73
2022/10/02 13:05:20;;;;;;;7.17;2.93;;;;;;;;;;5031859;28;20013;-72
2022/10/02 13:08:08;;;;;;;7.60;3.25;;;;;;;;;;5033733;28;20304;-73
2022/10/02 13:10:33;;;;;;;8.80;3.45;;;;;;;;;;5005131;28;20020;-73
2022/10/02 13:13:17;;;;;;;10.73;3.40;;;;;;;;;;5032046;28;20461;-72
2022/10/02 13:15:42;;;;;;;5.67;2.60;;;;;;;;;;5022126;28;20013;-73
2022/10/02 13:18:07;;;;;;;6.00;3.20;;;;;;;;;;5028056;28;20025;-72
2022/10/02 13:20:36;;;;;;;10.37;3.07;;;;;;;;;;5033033;28;20408;-73
2022/10/02 13:23:04;;;;;;;6.47;2.40;;;;;;;;;;5029630;28;20024;-73
2022/10/02 13:25:33;;;;;;;8.13;3.38;;;;;;;;;;5028737;28;20021;-72
2022/10/02 13:28:16;;;;;;;8.88;2.85;;;;;;;;;;5031987;28;20025;-73
2022/10/02 13:30:45;;;;;;;6.80;3.05;;;;;;;;;;5032702;28;20036;-73
2022/10/02 13:33:21;;;;;;;7.78;3.15;;;;;;;;;;5029219;28;20419;-73
2022/10/02 13:36:04;;;;;;;7.43;3.15;;;;;;;;;;5033376;28;20035;-73
2022/10/02 13:38:32;;;;;;;7.55;2.70;;;;;;;;;;5046446;28;20025;-73
2022/10/02 13:41:16;;;;;;;10.63;2.63;;;;;;;;;;5036537;28;20021;-73
2022/10/02 13:43:57;;;;;;;5.57;2.97;;;;;;;;;;5017518;28;20049;-72
2022/10/02 13:46:31;;;;;;;16.85;3.42;;;;;;;;;;5032564;28;20309;-72
2022/10/02 13:48:56;;;;;;;6.93;3.50;;;;;;;;;;5013330;28;20025;-70
2022/10/02 13:51:40;;;;;;;8.40;2.57;;;;;;;;;;5032190;28;20029;-69
2022/10/02 13:54:29;;;;;;;5.78;2.88;;;;;;;;;;5036131;28;20093;-73
2022/10/02 13:56:54;;;;;;;6.70;2.90;;;;;;;;;;5018500;28;20037;-71
2022/10/02 13:59:46;;;;;;;5.70;2.77;;;;;;;;;;5026760;28;20051;-72
2022/10/02 14:02:30;;;;;;;7.43;2.97;;;;;;;;;;5043360;28;20036;-69
2022/10/02 14:05:16;;;;;;;11.23;3.83;;;;;;;;;;5036664;28;20025;-72
2022/10/02 14:07:51;;;;;;;9.77;3.17;;;;;;;;;;5031430;28;20108;-70
2022/10/02 14:10:23;;;;;;;11.20;3.42;;;;;;;;;;5030342;28;20112;-72
2022/10/02 14:12:51;;;;;;;14.95;3.58;;;;;;;;;;5021592;28;20150;-71
2022/10/02 14:15:45;;;;;;;6.65;3.30;;;;;;;;;;5031152;28;20033;-72
2022/10/02 14:18:29;;;;;;;8.32;3.80;;;;;;;;;;5030832;28;20052;-73
2022/10/02 14:20:54;;;;;;;9.57;3.67;;;;;;;;;;5031199;28;20029;-72
2022/10/02 14:23:35;;;;;;;6.75;3.90;;;;;;;;;;5026806;28;20029;-73
2022/10/02 14:26:06;;;;;;;7.30;3.40;;;;;;;;;;5034740;28;20107;-73
2022/10/02 14:28:31;;;;;;;22.40;4.78;;;;;;;;;;5034237;28;20031;-73
2022/10/02 14:30:57;;;;;;;12.00;3.33;;;;;;;;;;5025730;28;20851;-73
2022/10/02 14:33:49;;;;;;;5.60;2.65;;;;;;;;;;5031880;28;20059;-73
2022/10/02 14:36:18;;;;;;;7.53;3.20;;;;;;;;;;5031837;28;20074;-73
2022/10/02 14:39:02;;;;;;;10.05;4.22;;;;;;;;;;5035217;28;20365;-73
2022/10/02 14:41:39;;;;;;;10.55;3.67;;;;;;;;;;5032802;28;20105;-72
2022/10/02 14:44:15;;;;;;;12.07;3.90;;;;;;;;;;5029232;28;20700;-73
2022/10/02 14:46:41;;;;;;;11.00;3.85;;;;;;;;;;5026707;28;20476;-75
2022/10/02 14:49:09;;;;;;;9.18;3.85;;;;;;;;;;5030052;28;20025;-75
2022/10/02 14:51:50;;;;;;;13.45;4.63;;;;;;;;;;5032340;28;20076;-75
2022/10/02 14:54:30;;;;;;;9.43;3.28;;;;;;;;;;5007104;28;20013;-75
2022/10/02 14:57:14;;;;;;;8.25;3.70;;;;;;;;;;5034162;28;20049;-74
2022/10/02 14:59:51;;;;;;;18.15;4.70;;;;;;;;;;5032381;28;20540;-74
2022/10/02 15:02:29;;;;;;;14.80;4.78;;;;;;;;;;5031839;28;20128;-73
2022/10/02 15:05:27;;;;;;;14.80;3.97;;;;;;;;;;5021271;28;20083;-73
2022/10/02 15:07:52;;;;;;;7.35;4.38;;;;;;;;;;5002566;28;20029;-74
2022/10/02 15:10:20;;;;;;;11.20;4.57;;;;;;;;;;5028328;28;20075;-74
2022/10/02 15:12:52;;;;;;;8.48;4.05;;;;;;;;;;5030148;28;20032;-73
2022/10/02 15:15:36;;;;;;;5.93;3.70;;;;;;;;;;5029920;28;20492;-75
2022/10/02 15:18:20;;;;;;;17.30;5.07;;;;;;;;;;5018674;28;20037;-72
2022/10/02 15:21:17;;;;;;;7.78;4.40;;;;;;;;;;5030061;28;20021;-73
2022/10/02 15:23:48;;;;;;;7.85;4.38;;;;;;;;;;5005514;28;20030;-75
2022/10/02 15:26:40;;;;;;;9.13;4.45;;;;;;;;;;5038773;28;20027;-75
2022/10/02 15:29:24;;;;;;;12.32;5.30;;;;;;;;;;5033399;28;20093;-75